createdAt,value
2019-02-16T00:00:21.849Z,21.20
2019-02-16T00:02:50.197Z,19.73
2019-02-16T00:05:18.583Z,20.00
2019-02-16T00:07:47.067Z,19.10
2019-02-16T00:10:15.451Z,20.33
2019-02-16T00:12:43.839Z,19.23
2019-02-16T00:15:12.230Z,19.30
2019-02-16T00:17:41.609Z,18.23
2019-02-16T00:20:10.025Z,17.50
2019-02-16T00:22:38.412Z,18.10
2019-02-16T00:25:06.890Z,17.43
2019-02-16T00:27:35.278Z,19.37
2019-02-16T00:30:04.720Z,16.93
2019-02-16T00:32:33.174Z,16.43
2019-02-16T00:35:01.572Z,16.80
2019-02-16T00:37:29.960Z,16.97
2019-02-16T00:39:58.362Z,15.40
2019-02-16T00:42:26.749Z,15.80
2019-02-16T00:44:55.153Z,16.17
2019-02-16T00:47:23.534Z,15.47
2019-02-16T00:49:51.931Z,15.67
2019-02-16T00:52:20.331Z,16.55
2019-02-16T00:54:48.733Z,15.03
2019-02-16T00:57:19.534Z,15.67
2019-02-16T00:59:48.118Z,15.00
2019-02-16T01:02:16.578Z,14.07
2019-02-16T01:04:45.649Z,13.93
2019-02-16T01:07:14.105Z,13.33
2019-02-16T01:09:42.520Z,14.50
2019-02-16T01:12:10.919Z,13.50
2019-02-16T01:14:39.311Z,14.10
2019-02-16T01:17:07.720Z,14.00
2019-02-16T01:19:36.126Z,12.83
2019-02-16T01:22:04.539Z,13.00
2019-02-16T01:24:32.944Z,13.20
2019-02-16T01:27:01.329Z,13.03
2019-02-16T01:29:29.723Z,12.43
2019-02-16T01:31:58.116Z,12.40
2019-02-16T01:34:26.527Z,12.47
2019-02-16T01:36:54.916Z,12.07
2019-02-16T01:39:23.317Z,12.63
2019-02-16T01:41:51.701Z,12.30
2019-02-16T01:44:20.108Z,12.80
2019-02-16T01:46:48.494Z,12.43
2019-02-16T01:49:16.895Z,11.53
2019-02-16T01:51:45.928Z,12.03
2019-02-16T01:54:14.333Z,11.40
2019-02-16T01:56:42.719Z,11.97
2019-02-16T01:59:11.117Z,11.50
2019-02-16T02:01:39.556Z,10.60
2019-02-16T02:04:08.048Z,12.07
2019-02-16T02:06:36.438Z,10.43
2019-02-16T02:09:06.371Z,11.37
2019-02-16T02:11:34.895Z,10.97
2019-02-16T02:14:03.296Z,10.73
2019-02-16T02:16:31.685Z,11.60
2019-02-16T02:19:00.075Z,12.17
2019-02-16T02:21:28.468Z,10.87
2019-02-16T02:23:56.849Z,10.60
2019-02-16T02:26:25.239Z,11.20
2019-02-16T02:28:53.627Z,10.60
2019-02-16T02:31:22.011Z,9.70
2019-02-16T02:33:50.389Z,10.13
2019-02-16T02:36:18.776Z,9.20
2019-02-16T02:38:47.193Z,10.50
2019-02-16T02:41:16.270Z,10.53
2019-02-16T02:43:44.653Z,9.27
2019-02-16T02:46:13.041Z,10.10
2019-02-16T02:48:41.419Z,9.00
2019-02-16T02:51:09.803Z,9.37
2019-02-16T02:53:38.180Z,9.27
2019-02-16T02:56:06.568Z,9.43
2019-02-16T02:58:34.957Z,10.13
2019-02-16T03:01:03.349Z,8.97
2019-02-16T03:03:31.742Z,9.40
2019-02-16T03:06:00.136Z,9.70
2019-02-16T03:08:28.510Z,9.13
2019-02-16T03:10:56.896Z,8.10
2019-02-16T03:13:25.290Z,8.30
2019-02-16T03:15:53.667Z,8.97
2019-02-16T03:18:22.044Z,9.30
2019-02-16T03:20:50.427Z,8.90
2019-02-16T03:23:20.046Z,8.27
2019-02-16T03:25:51.820Z,8.13
2019-02-16T03:28:44.479Z,7.83
2019-02-16T03:31:42.749Z,8.67
2019-02-16T03:34:16.972Z,8.33
2019-02-16T03:37:08.070Z,8.07
2019-02-16T03:39:38.093Z,7.93
2019-02-16T03:42:06.475Z,8.17
2019-02-16T03:44:34.854Z,7.93
2019-02-16T03:47:03.247Z,7.70
2019-02-16T03:49:31.623Z,7.67
2019-02-16T03:51:59.999Z,7.20
2019-02-16T03:54:28.384Z,7.78
2019-02-16T03:56:56.758Z,8.00
2019-02-16T03:59:25.142Z,7.60
2019-02-16T04:01:53.532Z,8.27
2019-02-16T04:04:21.890Z,6.90
2019-02-16T04:06:50.272Z,6.47
2019-02-16T04:09:18.646Z,7.10
2019-02-16T04:11:47.160Z,7.10
2019-02-16T04:14:15.481Z,7.87
2019-02-16T04:16:43.867Z,7.00
2019-02-16T04:19:12.247Z,7.90
2019-02-16T04:21:40.630Z,7.03
2019-02-16T04:24:08.996Z,7.47
2019-02-16T04:26:37.376Z,6.23
2019-02-16T04:29:05.744Z,6.67
2019-02-16T04:31:34.125Z,6.87
2019-02-16T04:34:02.495Z,7.20
2019-02-16T04:36:30.876Z,7.00
2019-02-16T04:38:59.248Z,6.33
2019-02-16T04:41:27.625Z,6.30
2019-02-16T04:43:55.997Z,7.10
2019-02-16T04:46:24.386Z,6.33
2019-02-16T04:48:52.753Z,6.20
2019-02-16T04:51:21.144Z,6.83
2019-02-16T04:53:49.522Z,5.80
2019-02-16T04:56:17.897Z,6.50
2019-02-16T04:58:47.277Z,6.40
2019-02-16T05:01:15.650Z,6.20
2019-02-16T05:03:44.019Z,6.00
2019-02-16T05:06:12.399Z,6.33
2019-02-16T05:08:40.765Z,5.93
2019-02-16T05:11:09.160Z,5.60
2019-02-16T05:13:37.521Z,5.63
2019-02-16T05:16:05.972Z,5.40
2019-02-16T05:18:34.348Z,5.80
2019-02-16T05:21:02.722Z,5.80
2019-02-16T05:23:31.098Z,5.92
2019-02-16T05:25:59.473Z,5.90
2019-02-16T05:28:27.850Z,5.67
2019-02-16T05:30:56.239Z,5.90
2019-02-16T05:33:24.598Z,5.60
2019-02-16T05:35:52.963Z,5.90
2019-02-16T05:38:21.349Z,5.60
2019-02-16T05:40:49.722Z,5.40
2019-02-16T05:43:18.088Z,4.77
2019-02-16T05:45:46.506Z,5.07
2019-02-16T05:48:14.850Z,5.70
2019-02-16T05:50:43.207Z,4.90
2019-02-16T05:53:11.591Z,4.80
2019-02-16T05:55:39.973Z,5.37
2019-02-16T05:58:08.358Z,5.00
2019-02-16T06:00:36.730Z,4.87
2019-02-16T06:03:05.117Z,5.10
2019-02-16T06:05:33.479Z,4.87
2019-02-16T06:08:01.860Z,4.97
2019-02-16T06:10:30.339Z,4.50
2019-02-16T06:13:01.963Z,5.40
2019-02-16T06:15:30.279Z,5.63
2019-02-16T06:17:58.662Z,4.40
2019-02-16T06:20:27.036Z,5.20
2019-02-16T06:23:03.768Z,4.63
2019-02-16T06:25:25.539Z,4.37
2019-02-16T06:27:53.917Z,4.70
2019-02-16T06:30:22.286Z,5.33
2019-02-16T06:32:50.679Z,4.43
2019-02-16T06:35:20.748Z,4.30
2019-02-16T06:37:49.130Z,4.80
2019-02-16T06:40:18.278Z,4.57
2019-02-16T06:42:46.664Z,4.30
2019-02-16T06:45:15.034Z,3.83
2019-02-16T06:47:43.418Z,4.33
2019-02-16T06:50:11.788Z,4.20
2019-02-16T06:52:40.179Z,4.43
2019-02-16T06:55:08.543Z,4.70
2019-02-16T06:57:37.402Z,4.07
2019-02-16T07:00:08.790Z,3.87
2019-02-16T07:02:37.280Z,4.20
2019-02-16T07:05:06.993Z,5.40
2019-02-16T07:07:35.369Z,5.27
2019-02-16T07:10:06.021Z,4.20
2019-02-16T07:12:34.522Z,4.60
2019-02-16T07:15:02.971Z,4.00
2019-02-16T07:17:35.767Z,4.27
2019-02-16T07:20:05.181Z,4.40
2019-02-16T07:22:33.562Z,4.03
2019-02-16T07:25:01.936Z,4.10
2019-02-16T07:27:30.319Z,4.07
2019-02-16T07:29:58.695Z,4.67
2019-02-16T07:32:27.080Z,3.80
2019-02-16T07:34:55.457Z,3.90
2019-02-16T07:37:23.844Z,4.60
2019-02-16T07:39:52.220Z,4.10
2019-02-16T07:42:20.605Z,4.10
2019-02-16T07:44:50.623Z,4.20
2019-02-16T07:47:23.300Z,4.00
2019-02-16T07:49:59.179Z,3.60
2019-02-16T07:52:32.065Z,3.50
2019-02-16T07:55:14.133Z,3.43
2019-02-16T07:57:49.903Z,3.60
2019-02-16T08:00:26.150Z,3.73
2019-02-16T08:02:58.911Z,3.72
2019-02-16T08:05:37.677Z,3.70
2019-02-16T08:08:10.758Z,3.60
2019-02-16T08:10:52.934Z,3.60
2019-02-16T08:13:22.966Z,3.37
2019-02-16T08:15:52.981Z,3.60
2019-02-16T08:18:25.755Z,3.70
2019-02-16T08:21:01.775Z,3.70
2019-02-16T08:23:40.186Z,3.60
2019-02-16T08:26:06.271Z,3.60
2019-02-16T08:28:41.764Z,4.07
2019-02-16T08:34:12.228Z,3.93
2019-02-16T08:36:44.914Z,3.43
2019-02-16T08:39:14.936Z,4.03
2019-02-16T08:41:53.654Z,3.70
2019-02-16T08:44:35.644Z,3.37
2019-02-16T08:47:08.095Z,4.13
2019-02-16T08:49:40.604Z,3.30
2019-02-16T08:52:25.602Z,3.60
2019-02-16T08:55:04.407Z,3.80
2019-02-16T08:57:52.782Z,4.60
2019-02-16T09:00:38.179Z,3.30
2019-02-16T09:03:08.207Z,4.10
2019-02-16T09:05:38.222Z,4.00
2019-02-16T09:08:20.493Z,4.10
2019-02-16T09:10:51.064Z,3.30
2019-02-16T09:13:26.835Z,2.60
2019-02-16T09:15:56.846Z,3.30
2019-02-16T09:18:26.861Z,3.33
2019-02-16T09:21:03.037Z,3.20
2019-02-16T09:23:49.240Z,3.07
2019-02-16T09:26:31.518Z,3.60
2019-02-16T09:29:10.548Z,3.10
2019-02-16T09:31:55.782Z,3.10
2019-02-16T09:34:37.913Z,3.35
2019-02-16T09:37:26.179Z,3.43
2019-02-16T09:40:12.190Z,2.80
2019-02-16T09:43:01.684Z,3.27
2019-02-16T09:45:31.793Z,3.10
2019-02-16T09:48:14.083Z,3.33
2019-02-16T09:50:47.138Z,3.00
2019-02-16T09:53:17.151Z,3.10
2019-02-16T09:55:49.689Z,2.93
2019-02-16T09:58:25.430Z,3.27
2019-02-16T10:01:01.154Z,2.60
2019-02-16T10:03:34.188Z,2.80
2019-02-16T10:06:13.468Z,3.03
2019-02-16T10:08:59.525Z,2.53
2019-02-16T10:11:29.542Z,3.00
2019-02-16T10:14:15.760Z,3.60
2019-02-16T10:17:00.524Z,2.67
2019-02-16T10:19:45.832Z,2.70
2019-02-16T10:22:15.846Z,2.70
2019-02-16T10:24:45.868Z,2.90
2019-02-16T10:27:32.556Z,3.20
2019-02-16T10:30:14.430Z,3.10
2019-02-16T10:32:59.587Z,2.80
2019-02-16T10:35:36.758Z,3.23
2019-02-16T10:38:18.550Z,3.10
2019-02-16T10:40:54.165Z,3.17
2019-02-16T10:43:24.192Z,2.87
2019-02-16T10:46:10.483Z,2.80
2019-02-16T10:48:46.184Z,3.10
2019-02-16T10:51:30.896Z,2.60
2019-02-16T10:54:01.099Z,2.55
2019-02-16T10:56:33.562Z,3.33
2019-02-16T10:59:03.587Z,2.87
2019-02-16T11:01:49.950Z,2.90
2019-02-16T11:04:37.700Z,3.17
2019-02-16T11:07:12.486Z,2.83
2019-02-16T11:09:45.220Z,2.83
2019-02-16T11:12:17.630Z,2.90
2019-02-16T11:14:53.854Z,3.10
2019-02-16T11:17:40.276Z,2.80
2019-02-16T11:20:12.965Z,3.30
2019-02-16T11:22:42.982Z,3.17
2019-02-16T11:25:16.151Z,3.30
2019-02-16T11:27:58.411Z,3.13
2019-02-16T11:30:28.432Z,2.73
2019-02-16T11:33:10.062Z,3.37
2019-02-16T11:35:42.985Z,3.37
2019-02-16T11:38:16.411Z,4.70
2019-02-16T11:40:55.446Z,6.27
2019-02-16T11:43:25.467Z,4.77
2019-02-16T11:45:58.461Z,4.57
2019-02-16T11:48:44.483Z,4.55
2019-02-16T11:51:29.906Z,4.07
2019-02-16T11:53:59.918Z,3.93
2019-02-16T11:56:46.331Z,4.00
2019-02-16T11:59:34.218Z,3.53
2019-02-16T12:02:04.244Z,3.57
2019-02-16T12:04:34.261Z,4.17
2019-02-16T12:07:06.942Z,3.30
2019-02-16T12:09:39.929Z,3.60
2019-02-16T12:12:26.022Z,3.80
2019-02-16T12:17:56.166Z,4.10
2019-02-16T12:20:33.415Z,3.87
2019-02-16T12:23:06.740Z,3.20
2019-02-16T12:25:45.393Z,3.12
2019-02-16T12:28:15.472Z,3.10
2019-02-16T12:30:45.442Z,3.40
2019-02-16T12:33:21.225Z,3.20
2019-02-16T12:35:56.962Z,3.20
2019-02-16T12:38:26.980Z,3.50
2019-02-16T12:40:57.057Z,3.00
2019-02-16T12:43:43.222Z,3.40
2019-02-16T12:46:24.946Z,3.20
2019-02-16T12:49:00.659Z,4.20
2019-02-16T12:51:46.869Z,3.60
2019-02-16T12:54:29.169Z,4.30
2019-02-16T12:56:59.206Z,4.37
2019-02-16T12:59:35.169Z,3.72
2019-02-16T13:02:07.810Z,3.77
2019-02-16T13:04:37.841Z,3.90
2019-02-16T13:07:07.878Z,3.90
2019-02-16T13:09:37.902Z,3.70
2019-02-16T13:12:10.897Z,3.73
2019-02-16T13:14:46.936Z,3.73
2019-02-16T13:17:25.617Z,3.30
2019-02-16T13:20:13.776Z,3.67
2019-02-16T13:22:55.772Z,2.63
2019-02-16T13:25:25.803Z,2.90
2019-02-16T13:28:01.584Z,3.20
2019-02-16T13:30:31.614Z,3.70
2019-02-16T13:33:08.728Z,3.40
2019-02-16T13:35:39.968Z,3.10
2019-02-16T13:38:25.410Z,2.90
2019-02-16T13:40:55.465Z,3.27
2019-02-16T13:43:37.522Z,2.87
2019-02-16T13:46:16.405Z,3.07
2019-02-16T13:48:52.496Z,2.73
2019-02-16T13:51:23.196Z,3.15
2019-02-16T13:53:53.269Z,3.17
2019-02-16T13:56:38.595Z,2.70
2019-02-16T13:59:08.631Z,2.93
2019-02-16T14:01:38.700Z,6.72
2019-02-16T14:04:15.751Z,6.43
2019-02-16T14:06:48.528Z,6.33
2019-02-16T14:09:21.351Z,7.70
2019-02-16T14:11:54.251Z,6.93
2019-02-16T14:14:42.461Z,7.10
2019-02-16T14:17:27.505Z,5.73
2019-02-16T14:19:55.927Z,5.27
2019-02-16T14:22:24.378Z,5.70
2019-02-16T14:24:54.429Z,5.80
2019-02-16T14:27:22.852Z,5.20
2019-02-16T14:29:51.261Z,4.53
2019-02-16T14:32:19.678Z,5.07
2019-02-16T14:34:48.097Z,5.70
2019-02-16T14:37:18.160Z,5.63
2019-02-16T14:39:46.557Z,5.00
2019-02-16T14:42:14.969Z,5.90
2019-02-16T14:44:43.386Z,6.47
2019-02-16T14:47:11.822Z,6.97
2019-02-16T14:49:40.238Z,6.07
2019-02-16T14:52:08.639Z,6.37
2019-02-16T14:54:37.022Z,5.83
2019-02-16T14:57:05.465Z,5.40
2019-02-16T14:59:33.825Z,6.57
2019-02-16T15:02:02.214Z,5.93
2019-02-16T15:04:30.590Z,5.00
2019-02-16T15:06:58.997Z,5.70
2019-02-16T15:09:27.378Z,5.37
2019-02-16T15:11:55.747Z,4.90
2019-02-16T15:14:24.141Z,4.83
2019-02-16T15:16:52.512Z,4.60
2019-02-16T15:19:20.897Z,4.60
2019-02-16T15:21:49.268Z,4.50
2019-02-16T15:24:17.654Z,4.20
2019-02-16T15:26:46.040Z,4.37
2019-02-16T15:29:14.434Z,4.20
2019-02-16T15:31:42.809Z,4.20
2019-02-16T15:34:11.192Z,3.93
2019-02-16T15:36:39.573Z,4.00
2019-02-16T15:39:08.045Z,4.00
2019-02-16T15:41:36.420Z,4.17
2019-02-16T15:44:04.801Z,3.87
2019-02-16T15:46:33.181Z,3.23
2019-02-16T15:49:01.574Z,3.63
2019-02-16T15:51:29.948Z,3.17
2019-02-16T15:53:58.336Z,3.53
2019-02-16T15:56:26.716Z,3.70
2019-02-16T15:58:55.147Z,2.73
2019-02-16T16:01:23.513Z,2.97
2019-02-16T16:03:51.954Z,2.90
2019-02-16T16:06:20.316Z,3.20
2019-02-16T16:08:56.157Z,3.10
2019-02-16T16:11:29.239Z,2.77
2019-02-16T16:14:14.433Z,2.67
2019-02-16T16:17:00.648Z,3.17
2019-02-16T16:19:31.205Z,3.30
2019-02-16T16:22:03.708Z,3.20
2019-02-16T16:24:36.610Z,3.13
2019-02-16T16:27:12.058Z,2.93
2019-02-16T16:30:00.369Z,2.35
2019-02-16T16:32:46.186Z,3.07
2019-02-16T16:35:16.216Z,2.70
2019-02-16T16:37:48.941Z,2.57
2019-02-16T16:40:37.353Z,2.72
2019-02-16T16:43:07.432Z,2.67
2019-02-16T16:45:43.346Z,2.50
2019-02-16T16:48:16.062Z,2.83
2019-02-16T16:51:02.412Z,2.47
2019-02-16T16:53:35.392Z,2.73
2019-02-16T16:56:11.035Z,2.20
2019-02-16T16:58:41.071Z,2.73
2019-02-16T17:01:23.468Z,3.10
2019-02-16T17:04:09.518Z,3.33
2019-02-16T17:06:45.290Z,3.10
2019-02-16T17:09:20.914Z,2.83
2019-02-16T17:11:53.478Z,3.60
2019-02-16T17:14:39.794Z,2.97
2019-02-16T17:17:19.173Z,3.10
2019-02-16T17:19:58.152Z,2.83
2019-02-16T17:22:31.442Z,3.07
2019-02-16T17:25:14.278Z,3.30
2019-02-16T17:27:44.303Z,3.30
2019-02-16T17:30:17.038Z,2.80
2019-02-16T17:32:47.058Z,3.50
2019-02-16T17:35:21.059Z,3.67
2019-02-16T17:38:07.375Z,3.30
2019-02-16T17:40:53.292Z,3.47
2019-02-16T17:43:26.035Z,3.13
2019-02-16T17:45:56.143Z,3.07
2019-02-16T17:48:31.954Z,3.17
2019-02-16T17:51:01.936Z,3.40
2019-02-16T17:53:31.955Z,3.23
2019-02-16T17:56:01.994Z,2.93
2019-02-16T17:58:32.088Z,3.27
2019-02-16T18:01:04.727Z,3.10
2019-02-16T18:03:37.405Z,3.90
2019-02-16T18:06:07.446Z,3.85
2019-02-16T18:08:49.308Z,3.80
2019-02-16T18:11:25.043Z,3.63
2019-02-16T18:13:57.776Z,3.23
2019-02-16T18:16:27.868Z,4.10
2019-02-16T18:19:00.759Z,3.87
2019-02-16T18:21:33.489Z,4.00
2019-02-16T18:24:03.504Z,3.30
2019-02-16T18:26:56.482Z,3.80
2019-02-16T18:29:23.916Z,3.50
2019-02-16T18:31:53.922Z,4.20
2019-02-16T18:34:32.867Z,3.40
2019-02-16T18:37:20.976Z,3.87
2019-02-16T18:39:53.840Z,4.00
2019-02-16T18:42:33.124Z,4.10
2019-02-16T18:45:18.435Z,3.60
2019-02-16T18:48:00.242Z,4.17
2019-02-16T18:50:46.619Z,3.50
2019-02-16T18:53:16.637Z,3.53
2019-02-16T18:58:32.217Z,3.00
2019-02-16T19:01:20.296Z,3.70
2019-02-16T19:03:53.063Z,3.37
2019-02-16T19:06:39.723Z,3.57
2019-02-16T19:09:09.819Z,3.40
2019-02-16T19:11:42.263Z,3.90
2019-02-16T19:14:12.283Z,3.20
2019-02-16T19:16:42.328Z,3.70
2019-02-16T19:19:30.138Z,4.40
2019-02-16T19:22:00.160Z,3.53
2019-02-16T19:24:42.248Z,3.70
2019-02-16T19:27:28.577Z,3.67
2019-02-16T19:30:13.705Z,3.83
2019-02-16T19:32:49.486Z,3.53
2019-02-16T19:35:22.024Z,3.73
2019-02-16T19:37:52.049Z,3.27
2019-02-16T19:40:27.804Z,3.30
2019-02-16T19:42:57.825Z,3.27
2019-02-16T19:45:30.778Z,3.57
2019-02-16T19:48:00.791Z,4.20
2019-02-16T19:50:36.464Z,7.97
2019-02-16T19:53:09.159Z,6.80
2019-02-16T19:55:39.209Z,5.33
2019-02-16T19:58:15.061Z,5.27
2019-02-16T20:00:48.033Z,5.60
2019-02-16T20:03:32.830Z,5.00
2019-02-16T20:06:19.530Z,5.63
2019-02-16T20:08:52.501Z,4.40
2019-02-16T20:11:38.784Z,4.50
2019-02-16T20:14:24.099Z,3.70
2019-02-16T20:16:54.136Z,4.13
2019-02-16T20:19:32.647Z,4.40
2019-02-16T20:22:02.674Z,3.37
2019-02-16T20:24:38.745Z,3.60
2019-02-16T20:27:11.764Z,3.77
2019-02-16T20:29:41.788Z,3.80
2019-02-16T20:32:23.812Z,3.40
2019-02-16T20:34:56.555Z,3.50
2019-02-16T20:37:32.575Z,4.13
2019-02-16T20:40:05.112Z,3.93
2019-02-16T20:42:38.045Z,3.23
2019-02-16T20:45:09.506Z,3.95
2019-02-16T20:47:45.058Z,3.40
2019-02-16T20:50:29.960Z,4.03
2019-02-16T20:53:00.009Z,3.80
2019-02-16T20:55:32.732Z,3.90
2019-02-16T20:58:02.831Z,4.07
2019-02-16T21:00:49.353Z,3.43
2019-02-16T21:03:25.704Z,3.43
2019-02-16T21:06:04.701Z,3.87
2019-02-16T21:08:51.205Z,3.33
2019-02-16T21:11:24.230Z,3.70
2019-02-16T21:14:05.949Z,3.57
2019-02-16T21:16:51.164Z,3.47
2019-02-16T21:19:21.186Z,2.70
2019-02-16T21:22:03.228Z,4.30
2019-02-16T21:24:38.714Z,3.97
2019-02-16T21:27:23.351Z,3.53
2019-02-16T21:30:08.657Z,3.90
2019-02-16T21:32:50.710Z,3.60
2019-02-16T21:35:38.995Z,2.90
2019-02-16T21:38:09.029Z,3.63
2019-02-16T21:40:50.924Z,3.43
2019-02-16T21:43:30.239Z,3.60
2019-02-16T21:46:00.261Z,3.80
2019-02-16T21:48:30.285Z,3.80
2019-02-16T21:51:00.305Z,3.30
2019-02-16T21:53:42.316Z,3.67
2019-02-16T21:56:12.344Z,3.62
2019-02-16T21:58:42.376Z,3.55
2019-02-16T22:01:18.191Z,3.47
2019-02-16T22:03:48.284Z,3.63
2019-02-16T22:06:18.311Z,3.63
2019-02-16T22:09:04.198Z,2.95
2019-02-16T22:11:34.220Z,3.27
2019-02-16T22:14:02.619Z,3.50
2019-02-16T22:16:31.621Z,3.53
2019-02-16T22:19:00.027Z,3.10
2019-02-16T22:21:28.411Z,3.67
2019-02-16T22:23:56.796Z,3.10
2019-02-16T22:26:25.178Z,3.20
2019-02-16T22:28:53.564Z,3.30
2019-02-16T22:31:21.937Z,3.40
2019-02-16T22:33:50.330Z,3.60
2019-02-16T22:36:18.706Z,3.83
2019-02-16T22:38:47.089Z,3.23
2019-02-16T22:41:15.461Z,3.63
2019-02-16T22:43:43.846Z,3.45
2019-02-16T22:46:12.222Z,3.62
2019-02-16T22:48:40.613Z,2.93
2019-02-16T22:51:09.064Z,3.73
2019-02-16T22:53:37.446Z,3.13
2019-02-16T22:56:05.826Z,3.03
2019-02-16T22:58:34.222Z,3.73
2019-02-16T23:01:02.591Z,3.30
2019-02-16T23:03:30.991Z,3.60
2019-02-16T23:05:59.370Z,3.10
2019-02-16T23:08:27.829Z,3.70
2019-02-16T23:10:56.206Z,3.37
2019-02-16T23:13:24.640Z,2.93
2019-02-16T23:15:53.091Z,3.43
2019-02-16T23:18:21.484Z,3.63
2019-02-16T23:20:50.104Z,3.17
2019-02-16T23:23:18.496Z,3.40
2019-02-16T23:25:46.941Z,3.23
2019-02-16T23:28:15.395Z,3.50
2019-02-16T23:30:43.841Z,3.10
2019-02-16T23:33:12.229Z,3.43
2019-02-16T23:35:40.614Z,3.53
2019-02-16T23:38:09.078Z,3.62
2019-02-16T23:40:37.453Z,3.37
2019-02-16T23:43:05.828Z,3.70
2019-02-16T23:45:34.214Z,3.33
2019-02-16T23:48:02.602Z,3.67
2019-02-16T23:50:30.979Z,3.10
2019-02-16T23:52:59.352Z,3.27
2019-02-16T23:55:27.749Z,3.30
2019-02-16T23:57:56.130Z,3.77
